sensor_id;sensor_type;location;lat;lon;timestamp;pressure;altitude;pressure_sealevel;temperature;humidity
9889;BME280;4983;42.112;24.738;2024-03-23T00:54:18;99912.38;;;5.47;59.74
9889;BME280;4983;42.112;24.738;2024-03-23T00:56:44;99912.19;;;5.29;60.61
9889;BME280;4983;42.112;24.738;2024-03-23T00:59:09;99915.63;;;5.30;60.97
9889;BME280;4983;42.112;24.738;2024-03-23T01:01:35;99909.72;;;5.28;61.28
9889;BME280;4983;42.112;24.738;2024-03-23T01:04:00;99907.66;;;5.31;61.41
9889;BME280;4983;42.112;24.738;2024-03-23T01:06:26;99911.50;;;5.37;61.09
9889;BME280;4983;42.112;24.738;2024-03-23T01:08:51;99907.13;;;5.37;61.11
9889;BME280;4983;42.112;24.738;2024-03-23T01:11:17;99906.00;;;5.40;60.94
9889;BME280;4983;42.112;24.738;2024-03-23T01:13:43;99904.50;;;5.47;61.32
9889;BME280;4983;42.112;24.738;2024-03-23T01:16:08;99907.25;;;5.45;60.58
9889;BME280;4983;42.112;24.738;2024-03-23T01:18:34;99906.53;;;5.34;60.57
9889;BME280;4983;42.112;24.738;2024-03-23T01:20:59;99907.78;;;5.30;60.86
9889;BME280;4983;42.112;24.738;2024-03-23T01:23:25;99905.03;;;5.31;60.68
9889;BME280;4983;42.112;24.738;2024-03-23T01:25:54;99903.38;;;5.30;60.45
9889;BME280;4983;42.112;24.738;2024-03-23T01:28:22;99901.84;;;5.18;61.13
9889;BME280;4983;42.112;24.738;2024-03-23T01:30:48;99909.50;;;5.10;61.08
9889;BME280;4983;42.112;24.738;2024-03-23T01:33:14;99914.75;;;5.10;61.45
9889;BME280;4983;42.112;24.738;2024-03-23T01:35:40;99907.56;;;5.03;62.18
9889;BME280;4983;42.112;24.738;2024-03-23T01:38:06;99901.25;;;5.05;61.31
9889;BME280;4983;42.112;24.738;2024-03-23T01:40:32;99905.41;;;5.17;61.52
9889;BME280;4983;42.112;24.738;2024-03-23T01:42:59;99893.84;;;5.20;60.85
9889;BME280;4983;42.112;24.738;2024-03-23T01:45:27;99903.63;;;5.18;60.50
9889;BME280;4983;42.112;24.738;2024-03-23T01:47:52;99912.72;;;5.14;60.58
9889;BME280;4983;42.112;24.738;2024-03-23T01:50:19;99893.81;;;5.10;59.88
9889;BME280;4983;42.112;24.738;2024-03-23T01:52:45;99914.47;;;5.04;59.87
9889;BME280;4983;42.112;24.738;2024-03-23T01:55:11;99905.31;;;4.89;60.41
9889;BME280;4983;42.112;24.738;2024-03-23T01:57:37;99916.03;;;4.86;60.75
9889;BME280;4983;42.112;24.738;2024-03-23T02:00:03;99904.44;;;4.79;60.97
9889;BME280;4983;42.112;24.738;2024-03-23T02:02:29;99912.81;;;4.73;61.78
9889;BME280;4983;42.112;24.738;2024-03-23T02:04:54;99917.59;;;4.68;61.70
9889;BME280;4983;42.112;24.738;2024-03-23T02:07:20;99908.50;;;4.62;62.13
9889;BME280;4983;42.112;24.738;2024-03-23T02:09:45;99893.81;;;4.50;62.31
9889;BME280;4983;42.112;24.738;2024-03-23T02:12:11;99915.56;;;4.51;61.98
9889;BME280;4983;42.112;24.738;2024-03-23T02:14:36;99907.44;;;4.44;63.42
9889;BME280;4983;42.112;24.738;2024-03-23T02:17:02;99898.50;;;4.47;62.15
9889;BME280;4983;42.112;24.738;2024-03-23T02:19:27;99903.22;;;4.53;62.01
9889;BME280;4983;42.112;24.738;2024-03-23T02:21:53;99906.66;;;4.53;62.41
9889;BME280;4983;42.112;24.738;2024-03-23T02:24:18;99904.81;;;4.44;62.52
9889;BME280;4983;42.112;24.738;2024-03-23T02:26:44;99909.66;;;4.49;61.82
9889;BME280;4983;42.112;24.738;2024-03-23T02:29:09;99904.69;;;4.46;62.29
9889;BME280;4983;42.112;24.738;2024-03-23T02:31:35;99899.34;;;4.47;62.52
9889;BME280;4983;42.112;24.738;2024-03-23T02:34:01;99901.28;;;4.55;62.23
9889;BME280;4983;42.112;24.738;2024-03-23T02:36:26;99898.84;;;4.63;62.17
9889;BME280;4983;42.112;24.738;2024-03-23T02:38:52;99898.16;;;4.61;62.82
9889;BME280;4983;42.112;24.738;2024-03-23T02:41:17;99890.31;;;4.61;62.88
9889;BME280;4983;42.112;24.738;2024-03-23T02:43:49;99896.69;;;4.68;62.10
9889;BME280;4983;42.112;24.738;2024-03-23T02:46:15;99891.66;;;4.55;63.02
9889;BME280;4983;42.112;24.738;2024-03-23T02:48:40;99899.38;;;4.57;62.60
9889;BME280;4983;42.112;24.738;2024-03-23T02:51:05;99899.84;;;4.41;63.40
9889;BME280;4983;42.112;24.738;2024-03-23T02:53:31;99894.22;;;4.25;63.72
9889;BME280;4983;42.112;24.738;2024-03-23T02:55:58;99905.81;;;4.32;64.06
9889;BME280;4983;42.112;24.738;2024-03-23T02:58:23;99899.78;;;4.32;63.03
9889;BME280;4983;42.112;24.738;2024-03-23T03:00:49;99905.03;;;4.32;64.05
9889;BME280;4983;42.112;24.738;2024-03-23T03:03:14;99896.16;;;4.23;63.50
9889;BME280;4983;42.112;24.738;2024-03-23T03:05:40;99900.97;;;4.07;64.84
9889;BME280;4983;42.112;24.738;2024-03-23T03:08:05;99900.22;;;3.96;64.56
9889;BME280;4983;42.112;24.738;2024-03-23T03:10:31;99901.16;;;3.95;65.24
9889;BME280;4983;42.112;24.738;2024-03-23T03:13:00;99895.31;;;4.02;64.79
9889;BME280;4983;42.112;24.738;2024-03-23T03:15:26;99889.31;;;4.11;64.72
9889;BME280;4983;42.112;24.738;2024-03-23T03:17:51;99891.13;;;4.11;64.36
9889;BME280;4983;42.112;24.738;2024-03-23T03:20:16;99889.13;;;4.03;64.43
9889;BME280;4983;42.112;24.738;2024-03-23T03:22:43;99890.22;;;4.01;64.07
9889;BME280;4983;42.112;24.738;2024-03-23T03:25:09;99899.47;;;4.05;64.34
9889;BME280;4983;42.112;24.738;2024-03-23T03:27:35;99889.25;;;4.02;64.18
9889;BME280;4983;42.112;24.738;2024-03-23T03:30:00;99876.72;;;3.96;63.66
9889;BME280;4983;42.112;24.738;2024-03-23T03:32:30;99891.06;;;4.01;63.91
9889;BME280;4983;42.112;24.738;2024-03-23T03:34:56;99896.72;;;4.06;63.47
9889;BME280;4983;42.112;24.738;2024-03-23T03:37:21;99885.56;;;4.04;64.20
9889;BME280;4983;42.112;24.738;2024-03-23T03:39:46;99899.78;;;4.11;63.45
9889;BME280;4983;42.112;24.738;2024-03-23T03:42:12;99905.00;;;4.11;63.77
9889;BME280;4983;42.112;24.738;2024-03-23T03:44:37;99899.16;;;3.98;63.18
9889;BME280;4983;42.112;24.738;2024-03-23T03:47:03;99905.78;;;4.02;64.26
9889;BME280;4983;42.112;24.738;2024-03-23T03:49:30;99908.25;;;4.04;64.01
9889;BME280;4983;42.112;24.738;2024-03-23T03:51:56;99915.00;;;4.06;63.87
9889;BME280;4983;42.112;24.738;2024-03-23T03:54:21;99915.38;;;4.02;63.39
9889;BME280;4983;42.112;24.738;2024-03-23T03:56:46;99909.78;;;4.06;64.11
9889;BME280;4983;42.112;24.738;2024-03-23T03:59:12;99915.44;;;4.11;64.27
9889;BME280;4983;42.112;24.738;2024-03-23T04:01:37;99903.34;;;4.10;64.45
9889;BME280;4983;42.112;24.738;2024-03-23T04:04:03;99912.47;;;4.16;64.22
9889;BME280;4983;42.112;24.738;2024-03-23T04:06:28;99905.53;;;4.05;63.20
9889;BME280;4983;42.112;24.738;2024-03-23T04:08:54;99923.78;;;3.85;63.96
9889;BME280;4983;42.112;24.738;2024-03-23T04:11:19;99923.84;;;3.63;64.22
9889;BME280;4983;42.112;24.738;2024-03-23T04:13:45;99929.81;;;3.54;64.90
9889;BME280;4983;42.112;24.738;2024-03-23T04:16:10;99916.56;;;3.35;65.86
9889;BME280;4983;42.112;24.738;2024-03-23T04:18:35;99928.16;;;3.42;66.07
9889;BME280;4983;42.112;24.738;2024-03-23T04:21:01;99917.72;;;3.42;66.07
9889;BME280;4983;42.112;24.738;2024-03-23T04:23:27;99922.47;;;3.48;66.02
9889;BME280;4983;42.112;24.738;2024-03-23T04:25:52;99931.66;;;3.63;65.82
9889;BME280;4983;42.112;24.738;2024-03-23T04:28:19;99923.72;;;3.64;65.88
9889;BME280;4983;42.112;24.738;2024-03-23T04:30:44;99932.72;;;3.71;65.15
9889;BME280;4983;42.112;24.738;2024-03-23T04:33:10;99929.28;;;3.71;65.04
9889;BME280;4983;42.112;24.738;2024-03-23T04:35:35;99933.47;;;3.62;64.96
9889;BME280;4983;42.112;24.738;2024-03-23T04:38:01;99931.00;;;3.50;65.42
9889;BME280;4983;42.112;24.738;2024-03-23T04:40:26;99937.28;;;3.47;66.21
9889;BME280;4983;42.112;24.738;2024-03-23T04:42:52;99946.44;;;3.53;65.96
9889;BME280;4983;42.112;24.738;2024-03-23T04:45:17;99933.22;;;3.54;65.48
9889;BME280;4983;42.112;24.738;2024-03-23T04:47:43;99946.00;;;3.68;65.57
9889;BME280;4983;42.112;24.738;2024-03-23T04:50:09;99934.88;;;3.66;65.93
9889;BME280;4983;42.112;24.738;2024-03-23T04:52:36;99944.16;;;3.59;66.34
9889;BME280;4983;42.112;24.738;2024-03-23T04:55:01;99945.34;;;3.55;66.14
9889;BME280;4983;42.112;24.738;2024-03-23T04:57:27;99942.03;;;3.53;65.95
9889;BME280;4983;42.112;24.738;2024-03-23T04:59:52;99943.94;;;3.51;65.98
9889;BME280;4983;42.112;24.738;2024-03-23T05:02:17;99927.44;;;3.51;67.03
9889;BME280;4983;42.112;24.738;2024-03-23T05:04:43;99937.00;;;3.61;67.17
9889;BME280;4983;42.112;24.738;2024-03-23T05:07:08;99945.97;;;3.79;66.19
9889;BME280;4983;42.112;24.738;2024-03-23T05:09:34;99938.81;;;3.92;65.28
9889;BME280;4983;42.112;24.738;2024-03-23T05:12:00;99937.06;;;4.13;65.06
9889;BME280;4983;42.112;24.738;2024-03-23T05:14:26;99929.88;;;4.26;64.16
9889;BME280;4983;42.112;24.738;2024-03-23T05:16:52;99929.28;;;4.43;64.60
9889;BME280;4983;42.112;24.738;2024-03-23T05:19:18;99931.38;;;4.70;63.72
9889;BME280;4983;42.112;24.738;2024-03-23T05:21:43;99931.59;;;4.87;63.12
9889;BME280;4983;42.112;24.738;2024-03-23T05:24:09;99938.25;;;5.01;62.99
9889;BME280;4983;42.112;24.738;2024-03-23T05:26:35;99925.66;;;5.15;62.99
9889;BME280;4983;42.112;24.738;2024-03-23T05:29:01;99920.22;;;5.37;62.49
9889;BME280;4983;42.112;24.738;2024-03-23T05:31:28;99932.38;;;5.57;60.80
9889;BME280;4983;42.112;24.738;2024-03-23T05:33:54;99934.03;;;5.58;61.08
9889;BME280;4983;42.112;24.738;2024-03-23T05:36:20;99930.31;;;5.70;61.26
9889;BME280;4983;42.112;24.738;2024-03-23T05:38:46;99927.59;;;5.91;60.60
9889;BME280;4983;42.112;24.738;2024-03-23T05:41:11;99925.53;;;6.13;59.81
9889;BME280;4983;42.112;24.738;2024-03-23T05:43:37;99925.53;;;6.33;59.33
9889;BME280;4983;42.112;24.738;2024-03-23T05:46:03;99930.59;;;6.53;58.62
9889;BME280;4983;42.112;24.738;2024-03-23T05:48:35;99919.31;;;6.89;66.18
9889;BME280;4983;42.112;24.738;2024-03-23T05:51:01;99910.16;;;7.30;58.16
9889;BME280;4983;42.112;24.738;2024-03-23T05:53:26;99919.06;;;7.99;58.25
9889;BME280;4983;42.112;24.738;2024-03-23T05:56:00;99922.25;;;8.63;57.25
9889;BME280;4983;42.112;24.738;2024-03-23T05:58:29;99924.84;;;9.14;53.46
9889;BME280;4983;42.112;24.738;2024-03-23T06:01:01;99917.69;;;9.32;49.79
9889;BME280;4983;42.112;24.738;2024-03-23T06:03:27;99918.16;;;9.27;49.44
9889;BME280;4983;42.112;24.738;2024-03-23T06:05:53;99924.50;;;9.17;50.34
9889;BME280;4983;42.112;24.738;2024-03-23T06:08:19;99919.22;;;9.09;51.48
9889;BME280;4983;42.112;24.738;2024-03-23T06:10:45;99922.66;;;9.01;51.72
9889;BME280;4983;42.112;24.738;2024-03-23T06:13:11;99919.06;;;8.85;50.37
9889;BME280;4983;42.112;24.738;2024-03-23T06:15:37;99926.09;;;9.02;51.52
9889;BME280;4983;42.112;24.738;2024-03-23T06:18:03;99917.97;;;9.21;51.06
9889;BME280;4983;42.112;24.738;2024-03-23T06:20:33;99926.75;;;9.38;50.26
9889;BME280;4983;42.112;24.738;2024-03-23T06:23:00;99921.69;;;9.52;50.15
9889;BME280;4983;42.112;24.738;2024-03-23T06:25:26;99920.06;;;9.59;49.82
9889;BME280;4983;42.112;24.738;2024-03-23T06:27:51;99917.78;;;9.80;48.51
9889;BME280;4983;42.112;24.738;2024-03-23T06:30:17;99917.69;;;9.98;46.43
9889;BME280;4983;42.112;24.738;2024-03-23T06:32:42;99914.53;;;9.94;46.23
9889;BME280;4983;42.112;24.738;2024-03-23T06:35:08;99923.38;;;9.61;47.92
9889;BME280;4983;42.112;24.738;2024-03-23T06:37:35;99919.91;;;9.69;48.66
9889;BME280;4983;42.112;24.738;2024-03-23T06:40:01;99919.78;;;9.78;46.68
9889;BME280;4983;42.112;24.738;2024-03-23T06:42:26;99915.69;;;9.92;46.77
9889;BME280;4983;42.112;24.738;2024-03-23T06:44:52;99919.31;;;9.99;46.03
9889;BME280;4983;42.112;24.738;2024-03-23T06:47:17;99919.16;;;10.00;44.36
9889;BME280;4983;42.112;24.738;2024-03-23T06:49:43;99912.56;;;10.04;45.55
9889;BME280;4983;42.112;24.738;2024-03-23T06:52:08;99912.75;;;10.11;46.36
9889;BME280;4983;42.112;24.738;2024-03-23T06:54:34;99916.22;;;10.27;45.34
9889;BME280;4983;42.112;24.738;2024-03-23T06:56:59;99915.06;;;10.46;44.24
9889;BME280;4983;42.112;24.738;2024-03-23T06:59:24;99908.41;;;10.74;45.65
9889;BME280;4983;42.112;24.738;2024-03-23T07:01:50;99909.00;;;11.00;44.88
9889;BME280;4983;42.112;24.738;2024-03-23T07:04:16;99905.16;;;11.18;44.19
9889;BME280;4983;42.112;24.738;2024-03-23T07:06:45;99907.75;;;11.34;42.51
9889;BME280;4983;42.112;24.738;2024-03-23T07:09:11;99904.34;;;11.48;42.02
9889;BME280;4983;42.112;24.738;2024-03-23T07:11:37;99909.16;;;11.45;43.53
9889;BME280;4983;42.112;24.738;2024-03-23T07:14:02;99900.22;;;11.54;43.75
9889;BME280;4983;42.112;24.738;2024-03-23T07:16:28;99899.22;;;11.85;42.50
9889;BME280;4983;42.112;24.738;2024-03-23T07:18:54;99893.56;;;12.11;42.04
9889;BME280;4983;42.112;24.738;2024-03-23T07:21:21;99893.81;;;12.39;41.42
9889;BME280;4983;42.112;24.738;2024-03-23T07:23:46;99896.59;;;12.60;41.83
9889;BME280;4983;42.112;24.738;2024-03-23T07:26:12;99889.50;;;12.75;40.28
9889;BME280;4983;42.112;24.738;2024-03-23T07:28:37;99888.25;;;13.00;39.90
9889;BME280;4983;42.112;24.738;2024-03-23T07:31:08;99890.50;;;13.32;39.07
9889;BME280;4983;42.112;24.738;2024-03-23T07:33:35;99882.78;;;13.51;39.87
9889;BME280;4983;42.112;24.738;2024-03-23T07:36:00;99888.69;;;13.68;38.14
9889;BME280;4983;42.112;24.738;2024-03-23T07:38:27;99880.97;;;13.73;37.08
9889;BME280;4983;42.112;24.738;2024-03-23T07:43:34;99880.81;;;13.39;38.93
9889;BME280;4983;42.112;24.738;2024-03-23T07:46:00;99880.28;;;13.29;40.36
9889;BME280;4983;42.112;24.738;2024-03-23T07:48:26;99872.56;;;13.48;38.70
9889;BME280;4983;42.112;24.738;2024-03-23T07:51:02;99868.22;;;13.83;38.52
9889;BME280;4983;42.112;24.738;2024-03-23T07:53:28;99871.34;;;13.86;38.97
9889;BME280;4983;42.112;24.738;2024-03-23T07:56:08;99866.22;;;14.06;36.30
9889;BME280;4983;42.112;24.738;2024-03-23T07:58:35;99863.38;;;14.07;36.09
9889;BME280;4983;42.112;24.738;2024-03-23T08:01:08;99863.56;;;14.06;36.74
9889;BME280;4983;42.112;24.738;2024-03-23T08:03:35;99860.41;;;13.96;37.54
9889;BME280;4983;42.112;24.738;2024-03-23T08:06:14;99863.06;;;14.17;36.69
9889;BME280;4983;42.112;24.738;2024-03-23T08:08:41;99854.06;;;14.39;37.78
9889;BME280;4983;42.112;24.738;2024-03-23T08:11:08;99853.25;;;14.66;35.28
9889;BME280;4983;42.112;24.738;2024-03-23T08:13:34;99846.69;;;15.02;37.56
9889;BME280;4983;42.112;24.738;2024-03-23T08:16:01;99846.28;;;15.46;34.25
9889;BME280;4983;42.112;24.738;2024-03-23T08:18:27;99841.66;;;15.81;36.37
9889;BME280;4983;42.112;24.738;2024-03-23T08:21:00;99846.19;;;15.93;34.22
9889;BME280;4983;42.112;24.738;2024-03-23T08:23:27;99829.81;;;15.96;31.90
9889;BME280;4983;42.112;24.738;2024-03-23T08:25:58;99827.38;;;16.01;33.04
9889;BME280;4983;42.112;24.738;2024-03-23T08:28:24;99828.97;;;15.89;34.33
9889;BME280;4983;42.112;24.738;2024-03-23T08:30:50;99829.00;;;16.15;34.82
9889;BME280;4983;42.112;24.738;2024-03-23T08:33:16;99833.09;;;16.37;32.36
9889;BME280;4983;42.112;24.738;2024-03-23T08:35:41;99824.47;;;16.61;32.69
9889;BME280;4983;42.112;24.738;2024-03-23T08:38:07;99818.22;;;16.93;34.29
9889;BME280;4983;42.112;24.738;2024-03-23T08:40:32;99820.78;;;17.26;31.19
9889;BME280;4983;42.112;24.738;2024-03-23T08:42:58;99810.44;;;17.49;30.35
9889;BME280;4983;42.112;24.738;2024-03-23T08:45:24;99804.13;;;17.43;29.95
9889;BME280;4983;42.112;24.738;2024-03-23T08:47:51;99800.56;;;17.49;29.19
9889;BME280;4983;42.112;24.738;2024-03-23T08:50:16;99803.13;;;17.69;28.71
9889;BME280;4983;42.112;24.738;2024-03-23T08:52:42;99793.41;;;17.81;28.40
9889;BME280;4983;42.112;24.738;2024-03-23T08:55:08;99793.44;;;18.24;27.97
9889;BME280;4983;42.112;24.738;2024-03-23T08:57:35;99782.69;;;18.30;28.05
9889;BME280;4983;42.112;24.738;2024-03-23T09:00:00;99779.50;;;18.46;27.32
9889;BME280;4983;42.112;24.738;2024-03-23T09:02:26;99774.81;;;18.60;28.73
9889;BME280;4983;42.112;24.738;2024-03-23T09:04:52;99772.25;;;18.47;28.09
9889;BME280;4983;42.112;24.738;2024-03-23T09:07:17;99776.09;;;18.57;27.80
9889;BME280;4983;42.112;24.738;2024-03-23T09:09:42;99774.03;;;18.77;27.64
9889;BME280;4983;42.112;24.738;2024-03-23T09:12:08;99762.91;;;18.92;26.85
9889;BME280;4983;42.112;24.738;2024-03-23T09:14:34;99764.63;;;19.04;27.92
9889;BME280;4983;42.112;24.738;2024-03-23T09:16:59;99761.72;;;19.06;25.75
9889;BME280;4983;42.112;24.738;2024-03-23T09:19:28;99759.28;;;18.50;27.52
9889;BME280;4983;42.112;24.738;2024-03-23T09:21:53;99753.13;;;18.68;27.01
9889;BME280;4983;42.112;24.738;2024-03-23T09:24:19;99755.34;;;18.89;28.17
9889;BME280;4983;42.112;24.738;2024-03-23T09:26:44;99747.91;;;18.91;27.45
9889;BME280;4983;42.112;24.738;2024-03-23T09:29:10;99745.56;;;19.12;26.29
9889;BME280;4983;42.112;24.738;2024-03-23T09:31:35;99742.22;;;19.17;27.08
9889;BME280;4983;42.112;24.738;2024-03-23T09:34:01;99737.84;;;19.52;26.78
9889;BME280;4983;42.112;24.738;2024-03-23T09:36:26;99736.22;;;19.62;26.40
9889;BME280;4983;42.112;24.738;2024-03-23T09:38:52;99738.84;;;19.80;25.40
9889;BME280;4983;42.112;24.738;2024-03-23T09:41:17;99725.25;;;19.52;25.49
9889;BME280;4983;42.112;24.738;2024-03-23T09:43:43;99727.91;;;19.41;26.73
9889;BME280;4983;42.112;24.738;2024-03-23T09:46:08;99726.66;;;19.55;26.79
9889;BME280;4983;42.112;24.738;2024-03-23T09:48:34;99729.41;;;19.89;26.68
9889;BME280;4983;42.112;24.738;2024-03-23T09:51:02;99722.38;;;19.77;26.41
9889;BME280;4983;42.112;24.738;2024-03-23T09:53:27;99719.41;;;20.08;25.49
9889;BME280;4983;42.112;24.738;2024-03-23T09:55:53;99710.63;;;19.78;26.13
9889;BME280;4983;42.112;24.738;2024-03-23T09:58:19;99706.31;;;19.77;25.94
9889;BME280;4983;42.112;24.738;2024-03-23T10:00:45;99703.84;;;19.23;26.42
9889;BME280;4983;42.112;24.738;2024-03-23T10:03:10;99694.81;;;19.06;26.51
9889;BME280;4983;42.112;24.738;2024-03-23T10:05:37;99694.38;;;19.50;27.54
9889;BME280;4983;42.112;24.738;2024-03-23T10:10:41;99676.34;;;20.49;27.92
9889;BME280;4983;42.112;24.738;2024-03-23T10:13:06;99682.78;;;20.88;26.10
9889;BME280;4983;42.112;24.738;2024-03-23T10:15:34;99682.69;;;21.11;25.84
9889;BME280;4983;42.112;24.738;2024-03-23T10:18:17;99673.53;;;20.95;25.79
9889;BME280;4983;42.112;24.738;2024-03-23T10:20:47;99665.50;;;20.95;26.11
9889;BME280;4983;42.112;24.738;2024-03-23T10:23:16;99665.25;;;20.97;24.45
9889;BME280;4983;42.112;24.738;2024-03-23T10:25:42;99659.41;;;20.60;26.02
9889;BME280;4983;42.112;24.738;2024-03-23T10:28:08;99655.97;;;20.02;27.04
9889;BME280;4983;42.112;24.738;2024-03-23T10:30:34;99646.66;;;19.81;27.32
9889;BME280;4983;42.112;24.738;2024-03-23T10:33:10;99639.09;;;20.13;26.21
9889;BME280;4983;42.112;24.738;2024-03-23T10:35:36;99641.91;;;20.57;26.33
9889;BME280;4983;42.112;24.738;2024-03-23T10:38:04;99637.56;;;20.68;25.19
9889;BME280;4983;42.112;24.738;2024-03-23T10:40:30;99620.03;;;20.77;24.86
9889;BME280;4983;42.112;24.738;2024-03-23T10:42:57;99623.31;;;21.07;23.85
9889;BME280;4983;42.112;24.738;2024-03-23T10:45:24;99625.34;;;21.00;25.09
9889;BME280;4983;42.112;24.738;2024-03-23T10:47:49;99624.84;;;20.75;24.84
9889;BME280;4983;42.112;24.738;2024-03-23T10:50:15;99610.50;;;20.70;26.83
9889;BME280;4983;42.112;24.738;2024-03-23T10:52:45;99607.94;;;20.91;26.73
9889;BME280;4983;42.112;24.738;2024-03-23T10:55:11;99604.59;;;21.12;25.05
9889;BME280;4983;42.112;24.738;2024-03-23T10:57:59;99600.19;;;21.23;24.25
9889;BME280;4983;42.112;24.738;2024-03-23T11:00:25;99589.94;;;21.53;25.67
9889;BME280;4983;42.112;24.738;2024-03-23T11:02:51;99585.56;;;21.80;24.34
9889;BME280;4983;42.112;24.738;2024-03-23T11:07:52;99572.63;;;21.98;22.94
9889;BME280;4983;42.112;24.738;2024-03-23T11:10:26;99569.19;;;22.03;22.47
9889;BME280;4983;42.112;24.738;2024-03-23T11:12:53;99563.91;;;22.34;23.13
9889;BME280;4983;42.112;24.738;2024-03-23T11:15:18;99559.66;;;22.60;22.85
9889;BME280;4983;42.112;24.738;2024-03-23T11:18:06;99540.06;;;22.64;22.67
9889;BME280;4983;42.112;24.738;2024-03-23T11:20:35;99551.03;;;22.84;22.04
9889;BME280;4983;42.112;24.738;2024-03-23T11:23:00;99548.66;;;22.88;22.73
9889;BME280;4983;42.112;24.738;2024-03-23T11:25:27;99549.00;;;22.96;20.62
9889;BME280;4983;42.112;24.738;2024-03-23T11:30:23;99535.16;;;23.14;23.33
9889;BME280;4983;42.112;24.738;2024-03-23T11:32:53;99520.72;;;23.30;21.34
9889;BME280;4983;42.112;24.738;2024-03-23T11:35:30;99517.81;;;23.05;23.27
9889;BME280;4983;42.112;24.738;2024-03-23T11:38:15;99506.81;;;23.44;23.42
9889;BME280;4983;42.112;24.738;2024-03-23T11:40:47;99506.88;;;23.54;20.96
9889;BME280;4983;42.112;24.738;2024-03-23T11:43:14;99499.47;;;23.81;22.17
9889;BME280;4983;42.112;24.738;2024-03-23T11:45:44;99503.88;;;23.97;20.89
9889;BME280;4983;42.112;24.738;2024-03-23T11:48:12;99490.72;;;24.10;22.14
9889;BME280;4983;42.112;24.738;2024-03-23T11:50:42;99494.91;;;23.86;21.04
9889;BME280;4983;42.112;24.738;2024-03-23T11:55:56;99461.44;;;23.25;21.17
9889;BME280;4983;42.112;24.738;2024-03-23T11:58:24;99478.94;;;23.23;20.29
9889;BME280;4983;42.112;24.738;2024-03-23T12:00:57;99465.72;;;23.21;21.29
9889;BME280;4983;42.112;24.738;2024-03-23T12:03:23;99461.69;;;23.24;20.65
9889;BME280;4983;42.112;24.738;2024-03-23T12:05:55;99458.22;;;22.60;21.83
9889;BME280;4983;42.112;24.738;2024-03-23T12:08:30;99444.19;;;22.58;21.66
9889;BME280;4983;42.112;24.738;2024-03-23T12:11:13;99442.53;;;22.84;21.36
9889;BME280;4983;42.112;24.738;2024-03-23T12:13:40;99441.69;;;22.83;21.85
9889;BME280;4983;42.112;24.738;2024-03-23T12:16:18;99437.81;;;22.69;21.28
9889;BME280;4983;42.112;24.738;2024-03-23T12:18:48;99441.69;;;22.78;21.08
9889;BME280;4983;42.112;24.738;2024-03-23T12:21:14;99426.81;;;22.71;22.47
9889;BME280;4983;42.112;24.738;2024-03-23T12:23:40;99434.28;;;23.00;23.36
9889;BME280;4983;42.112;24.738;2024-03-23T12:26:06;99425.91;;;23.33;21.28
9889;BME280;4983;42.112;24.738;2024-03-23T12:28:32;99428.03;;;23.26;21.79
9889;BME280;4983;42.112;24.738;2024-03-23T12:30:58;99417.38;;;23.10;20.90
9889;BME280;4983;42.112;24.738;2024-03-23T12:33:23;99416.16;;;23.27;20.00
9889;BME280;4983;42.112;24.738;2024-03-23T12:35:52;99404.41;;;23.44;19.25
9889;BME280;4983;42.112;24.738;2024-03-23T12:38:19;99406.44;;;23.21;19.93
9889;BME280;4983;42.112;24.738;2024-03-23T12:40:50;99402.56;;;23.12;20.68
9889;BME280;4983;42.112;24.738;2024-03-23T12:43:17;99403.91;;;23.10;21.42
9889;BME280;4983;42.112;24.738;2024-03-23T12:45:49;99384.44;;;23.45;20.49
9889;BME280;4983;42.112;24.738;2024-03-23T12:48:15;99388.31;;;23.69;20.58
9889;BME280;4983;42.112;24.738;2024-03-23T12:50:40;99378.91;;;23.71;18.61
9889;BME280;4983;42.112;24.738;2024-03-23T12:53:06;99374.00;;;23.58;19.58
9889;BME280;4983;42.112;24.738;2024-03-23T12:55:31;99379.59;;;23.42;19.37
9889;BME280;4983;42.112;24.738;2024-03-23T12:57:57;99369.78;;;23.20;19.49
9889;BME280;4983;42.112;24.738;2024-03-23T13:00:22;99361.84;;;22.99;20.38
9889;BME280;4983;42.112;24.738;2024-03-23T13:02:48;99368.66;;;22.70;20.54
9889;BME280;4983;42.112;24.738;2024-03-23T13:05:14;99362.66;;;22.31;20.12
9889;BME280;4983;42.112;24.738;2024-03-23T13:07:39;99360.84;;;22.37;20.19
9889;BME280;4983;42.112;24.738;2024-03-23T13:10:05;99360.16;;;22.51;20.29
9889;BME280;4983;42.112;24.738;2024-03-23T13:12:32;99343.00;;;22.57;19.55
9889;BME280;4983;42.112;24.738;2024-03-23T13:15:01;99352.59;;;22.85;20.11
9889;BME280;4983;42.112;24.738;2024-03-23T13:17:27;99340.28;;;22.94;18.55
9889;BME280;4983;42.112;24.738;2024-03-23T13:19:54;99333.03;;;22.26;19.28
9889;BME280;4983;42.112;24.738;2024-03-23T13:22:20;99343.25;;;22.56;20.37
9889;BME280;4983;42.112;24.738;2024-03-23T13:24:46;99326.28;;;22.55;18.63
9889;BME280;4983;42.112;24.738;2024-03-23T13:27:11;99337.13;;;22.70;17.65
9889;BME280;4983;42.112;24.738;2024-03-23T13:29:37;99330.97;;;22.70;19.01
9889;BME280;4983;42.112;24.738;2024-03-23T13:32:06;99323.66;;;22.65;20.54
9889;BME280;4983;42.112;24.738;2024-03-23T13:34:32;99329.38;;;22.74;20.91
9889;BME280;4983;42.112;24.738;2024-03-23T13:36:58;99315.66;;;22.75;19.93
9889;BME280;4983;42.112;24.738;2024-03-23T13:39:24;99315.91;;;22.74;20.12
9889;BME280;4983;42.112;24.738;2024-03-23T13:41:50;99311.09;;;22.44;20.48
9889;BME280;4983;42.112;24.738;2024-03-23T13:44:16;99294.41;;;22.42;19.97
9889;BME280;4983;42.112;24.738;2024-03-23T13:46:42;99303.53;;;22.36;20.56
9889;BME280;4983;42.112;24.738;2024-03-23T13:49:26;99302.66;;;21.99;20.50
9889;BME280;4983;42.112;24.738;2024-03-23T13:51:55;99306.75;;;21.54;20.84
9889;BME280;4983;42.112;24.738;2024-03-23T13:54:22;99290.53;;;21.01;20.12
9889;BME280;4983;42.112;24.738;2024-03-23T13:56:58;99287.94;;;21.06;20.57
9889;BME280;4983;42.112;24.738;2024-03-23T13:59:29;99284.44;;;21.05;20.17
9889;BME280;4983;42.112;24.738;2024-03-23T14:02:00;99279.25;;;20.99;21.61
9889;BME280;4983;42.112;24.738;2024-03-23T14:04:26;99274.97;;;20.81;20.83
9889;BME280;4983;42.112;24.738;2024-03-23T14:06:51;99276.53;;;20.22;22.73
9889;BME280;4983;42.112;24.738;2024-03-23T14:09:17;99274.97;;;20.26;22.84
9889;BME280;4983;42.112;24.738;2024-03-23T14:11:46;99271.69;;;20.57;22.02
9889;BME280;4983;42.112;24.738;2024-03-23T14:14:12;99270.16;;;20.83;23.04
9889;BME280;4983;42.112;24.738;2024-03-23T14:16:37;99262.41;;;20.87;22.55
9889;BME280;4983;42.112;24.738;2024-03-23T14:19:03;99265.34;;;20.85;21.32